Time;durP1;ratioP1;P1;durP2;ratioP2;P2;SDS_P1;SDS_P2;PMS_P1;PMS_P2;Temp;Humidity;BMP_temperature;BMP_pressure;BME280_temperature;BME280_humidity;BME280_pressure;Samples;Min_cycle;Max_cycle;Signal;HPM_P1;HPM_P2
2023/02/13 00:01:53;;;;;;;0.50;0.40;;;8.80;99.90;;;;;;5058659;28;20226;-80
2023/02/13 00:04:20;;;;;;;0.50;0.40;;;8.80;99.90;;;;;;5058680;28;20250;-80
2023/02/13 00:06:48;;;;;;;0.50;0.40;;;8.80;99.90;;;;;;5059321;28;20233;-81
2023/02/13 00:09:15;;;;;;;0.50;0.40;;;8.80;99.90;;;;;;5058967;28;20190;-80
2023/02/13 00:11:42;;;;;;;0.50;0.40;;;8.80;99.90;;;;;;5059574;28;20285;-81
2023/02/13 00:14:09;;;;;;;0.50;0.40;;;8.80;99.90;;;;;;5060883;28;20246;-80
2023/02/13 00:16:36;;;;;;;0.50;0.40;;;8.80;99.90;;;;;;5060654;28;20285;-80
2023/02/13 00:19:03;;;;;;;0.50;0.40;;;8.70;99.90;;;;;;5060993;28;20301;-81
2023/02/13 00:21:30;;;;;;;0.50;0.40;;;8.70;99.90;;;;;;5060012;28;20663;-80
2023/02/13 00:23:58;;;;;;;0.50;0.40;;;8.80;99.90;;;;;;5060046;28;20282;-80
2023/02/13 00:26:25;;;;;;;0.50;0.40;;;8.80;99.90;;;;;;5061070;28;20285;-81
2023/02/13 00:28:52;;;;;;;0.50;0.40;;;8.70;99.90;;;;;;5060701;28;20226;-81
2023/02/13 00:31:21;;;;;;;0.50;0.40;;;8.70;99.90;;;;;;5058983;28;20257;-80
2023/02/13 00:33:48;;;;;;;14.60;9.52;;;8.80;99.90;;;;;;5060870;28;20242;-79
2023/02/13 00:36:19;;;;;;;0.50;0.40;;;8.80;99.90;;;;;;5061965;28;20660;-80
2023/02/13 00:38:46;;;;;;;0.50;0.40;;;8.80;99.90;;;;;;5062959;28;20193;-80
2023/02/13 00:41:16;;;;;;;0.50;0.40;;;8.80;99.90;;;;;;5062189;28;20285;-77
2023/02/13 00:43:43;;;;;;;0.50;0.40;;;8.70;99.90;;;;;;5063344;28;20218;-80
2023/02/13 00:46:11;;;;;;;0.50;0.40;;;8.80;99.90;;;;;;5059805;28;20770;-80
2023/02/13 00:48:38;;;;;;;0.50;0.40;;;8.70;99.90;;;;;;5060624;28;20198;-78
2023/02/13 00:51:06;;;;;;;0.50;0.40;;;8.70;99.90;;;;;;5061847;28;20285;-80
2023/02/13 00:53:34;;;;;;;1.10;1.10;;;8.70;99.90;;;;;;5060586;28;20223;-79
2023/02/13 00:56:01;;;;;;;0.50;0.40;;;8.80;99.90;;;;;;5060743;28;20195;-80
2023/02/13 00:58:29;;;;;;;0.85;0.82;;;8.80;99.90;;;;;;5061298;28;20194;-80
2023/02/13 01:00:56;;;;;;;0.50;0.40;;;8.70;99.90;;;;;;5060989;28;20291;-80
2023/02/13 01:03:23;;;;;;;0.50;0.40;;;8.70;99.90;;;;;;5060461;28;20771;-80
2023/02/13 01:05:51;;;;;;;4.30;2.95;;;8.70;99.90;;;;;;5060416;28;20202;-79
2023/02/13 01:08:19;;;;;;;0.50;0.40;;;8.70;99.90;;;;;;5061454;28;20601;-80
2023/02/13 01:10:47;;;;;;;0.50;0.40;;;8.60;99.90;;;;;;5060753;28;20549;-80
2023/02/13 01:13:14;;;;;;;0.50;0.40;;;8.60;99.90;;;;;;5060873;28;20272;-80
2023/02/13 01:15:42;;;;;;;1.23;1.23;;;8.70;99.90;;;;;;5063303;28;20528;-80
2023/02/13 01:18:12;;;;;;;0.50;0.40;;;8.70;99.90;;;;;;5070141;28;20226;-76
2023/02/13 01:20:38;;;;;;;0.50;0.40;;;8.70;99.90;;;;;;5070052;28;20221;-81
2023/02/13 01:23:05;;;;;;;7.22;6.88;;;8.70;99.90;;;;;;5069838;28;20249;-79
2023/02/13 01:25:32;;;;;;;0.50;0.40;;;8.70;99.90;;;;;;5062880;28;20288;-81
2023/02/13 01:27:59;;;;;;;0.50;0.40;;;8.80;99.90;;;;;;5059919;28;20684;-80
2023/02/13 01:30:26;;;;;;;0.60;0.60;;;8.80;99.90;;;;;;5059399;28;20191;-80
2023/02/13 01:32:54;;;;;;;0.50;0.40;;;8.80;99.90;;;;;;5059937;28;20278;-80
2023/02/13 01:35:21;;;;;;;0.50;0.40;;;8.80;99.90;;;;;;5059993;28;20209;-80
2023/02/13 01:37:48;;;;;;;0.50;0.40;;;8.70;99.90;;;;;;5058436;28;20301;-81
2023/02/13 01:40:16;;;;;;;0.50;0.40;;;8.70;99.90;;;;;;5059402;28;20256;-79
2023/02/13 01:42:43;;;;;;;0.50;0.40;;;8.70;99.90;;;;;;5059149;28;20238;-80
2023/02/13 01:45:23;;;;;;;0.50;0.40;;;8.70;99.90;;;;;;5059876;28;20226;-80
2023/02/13 01:47:53;;;;;;;0.73;0.65;;;8.70;99.90;;;;;;5060384;28;20239;-80
2023/02/13 01:50:25;;;;;;;0.50;0.40;;;8.70;99.90;;;;;;5058900;28;20229;-81
2023/02/13 01:52:57;;;;;;;0.50;0.40;;;8.70;99.90;;;;;;5058385;28;20233;-80
2023/02/13 01:55:27;;;;;;;0.50;0.40;;;8.70;99.90;;;;;;5061060;28;20187;-82
2023/02/13 01:57:58;;;;;;;0.50;0.40;;;8.70;99.90;;;;;;5060258;28;20197;-78
2023/02/13 02:00:25;;;;;;;1.63;1.52;;;8.70;99.90;;;;;;5059887;28;20214;-80
2023/02/13 02:02:55;;;;;;;0.50;0.40;;;8.70;99.90;;;;;;5059816;28;20253;-80
2023/02/13 02:05:26;;;;;;;0.50;0.40;;;8.60;99.90;;;;;;5060258;28;20194;-80
2023/02/13 02:07:54;;;;;;;0.50;0.40;;;8.60;99.90;;;;;;5060377;28;20206;-81
2023/02/13 02:10:22;;;;;;;0.50;0.40;;;8.60;99.90;;;;;;5059219;28;20258;-80
2023/02/13 02:12:53;;;;;;;0.75;0.75;;;8.60;99.90;;;;;;5059276;28;20249;-79
2023/02/13 02:15:21;;;;;;;0.63;0.63;;;8.60;99.90;;;;;;5057680;28;20202;-79
2023/02/13 02:17:48;;;;;;;1.23;1.23;;;8.60;99.90;;;;;;5056503;28;20197;-79
2023/02/13 02:20:29;;;;;;;0.50;0.40;;;8.60;99.90;;;;;;5057334;28;20242;-77
2023/02/13 02:23:27;;;;;;;1.23;0.57;;;8.60;99.90;;;;;;5057445;28;20225;-79
2023/02/13 02:26:41;;;;;;;0.50;0.40;;;8.60;99.90;;;;;;5056623;28;20205;-80
2023/02/13 02:29:44;;;;;;;1.30;1.20;;;8.60;99.90;;;;;;5032038;28;20687;-79
2023/02/13 02:32:34;;;;;;;0.50;0.40;;;8.50;99.90;;;;;;5056438;28;20232;-81
2023/02/13 02:35:13;;;;;;;0.80;0.75;;;8.50;99.90;;;;;;5058171;28;20266;-80
2023/02/13 02:38:08;;;;;;;0.50;0.40;;;8.50;99.90;;;;;;5058045;28;20270;-79
2023/02/13 02:40:41;;;;;;;0.50;0.40;;;8.50;99.90;;;;;;5057969;28;20220;-81
2023/02/13 02:43:23;;;;;;;0.60;0.60;;;8.50;99.90;;;;;;5058383;28;20224;-81
2023/02/13 02:45:56;;;;;;;0.95;0.95;;;8.50;99.90;;;;;;5057780;28;20234;-80
2023/02/13 02:51:22;;;;;;;0.50;0.40;;;8.50;99.90;;;;;;5058638;28;20178;-81
2023/02/13 02:53:56;;;;;;;0.60;0.50;;;8.50;99.90;;;;;;5058575;28;20650;-80
2023/02/13 02:56:28;;;;;;;0.50;0.40;;;8.50;99.90;;;;;;5058492;28;20183;-81
2023/02/13 03:07:20;;;;;;;0.50;0.40;;;8.40;99.90;;;;;;5058918;28;20267;-80
2023/02/13 03:15:26;;;;;;;1.50;1.45;;;8.30;99.90;;;;;;5056645;28;20225;-78
2023/02/13 03:23:45;;;;;;;0.50;0.40;;;8.30;99.90;;;;;;5060950;28;20707;-79
2023/02/13 03:26:31;;;;;;;0.50;0.40;;;8.30;99.90;;;;;;5059671;28;20281;-79
2023/02/13 03:32:01;;;;;;;0.50;0.40;;;8.20;99.90;;;;;;5059446;28;20194;-79
2023/02/13 03:37:53;;;;;;;0.50;0.40;;;8.20;99.90;;;;;;5059251;28;20179;-77
2023/02/13 03:40:18;;;;;;;0.50;0.43;;;8.10;99.90;;;;;;5060203;28;20274;-79
2023/02/13 03:42:51;;;;;;;1.02;0.70;;;8.10;99.90;;;;;;5061173;28;20310;-78
2023/02/13 03:50:04;;;;;;;0.52;0.52;;;8.00;99.90;;;;;;5061037;28;20170;-79
2023/02/13 03:50:58;;;;;;;0.50;0.50;;;8.00;99.90;;;;;;5061235;28;20191;-79
2023/02/13 03:53:29;;;;;;;0.50;0.40;;;8.00;99.90;;;;;;5060466;28;20230;-78
2023/02/13 04:01:35;;;;;;;2.25;1.30;;;8.00;99.90;;;;;;5008879;28;20211;-77
2023/02/13 04:04:07;;;;;;;0.52;0.52;;;8.00;99.90;;;;;;5014824;28;20192;-77
2023/02/13 04:06:38;;;;;;;0.50;0.50;;;8.00;99.90;;;;;;5015126;28;20640;-78
2023/02/13 04:09:06;;;;;;;3.10;2.90;;;8.00;99.90;;;;;;5014755;28;20227;-77
2023/02/13 04:11:37;;;;;;;0.50;0.40;;;7.90;99.90;;;;;;5015281;28;20196;-76
2023/02/13 04:14:08;;;;;;;0.50;0.40;;;7.90;99.90;;;;;;5014475;28;20196;-77
2023/02/13 04:16:38;;;;;;;1.05;0.80;;;7.90;99.90;;;;;;5014332;28;20222;-76
2023/02/13 04:19:06;;;;;;;0.60;0.50;;;7.80;99.90;;;;;;5014594;28;20224;-76
2023/02/13 04:21:33;;;;;;;5.22;4.82;;;7.80;99.90;;;;;;5014318;28;20219;-76
2023/02/13 04:24:00;;;;;;;0.65;0.50;;;7.80;99.90;;;;;;5014647;28;20640;-76
2023/02/13 04:26:35;;;;;;;0.60;0.60;;;7.80;99.90;;;;;;5013893;28;20203;-76
2023/02/13 04:29:01;;;;;;;0.50;0.40;;;7.70;99.90;;;;;;5014513;28;20215;-76
2023/02/13 04:31:28;;;;;;;0.60;0.60;;;7.70;99.90;;;;;;5014457;28;20657;-76
2023/02/13 04:33:55;;;;;;;1.23;0.85;;;7.70;99.90;;;;;;5014467;28;20568;-76
2023/02/13 04:36:22;;;;;;;0.50;0.50;;;7.70;99.90;;;;;;5013761;28;20287;-77
2023/02/13 04:38:50;;;;;;;0.50;0.40;;;7.70;99.90;;;;;;5014301;28;20222;-76
2023/02/13 04:41:17;;;;;;;4.05;3.70;;;7.70;99.90;;;;;;5014255;28;20589;-76
2023/02/13 04:43:45;;;;;;;3.42;2.78;;;7.70;99.90;;;;;;5014287;28;20195;-77
2023/02/13 04:46:12;;;;;;;0.50;0.40;;;7.70;99.90;;;;;;5013799;28;20290;-77
2023/02/13 04:48:39;;;;;;;0.50;0.40;;;7.70;99.90;;;;;;5014186;28;20248;-76
2023/02/13 04:51:06;;;;;;;0.68;0.68;;;7.80;99.90;;;;;;5013945;28;20203;-76
2023/02/13 04:53:33;;;;;;;0.70;0.70;;;7.80;99.90;;;;;;5013532;28;20203;-77
2023/02/13 04:56:00;;;;;;;0.50;0.40;;;7.70;99.90;;;;;;5013478;28;20196;-77
2023/02/13 04:58:27;;;;;;;0.50;0.40;;;7.70;99.90;;;;;;5013171;28;20220;-76
2023/02/13 05:00:55;;;;;;;0.50;0.50;;;7.70;99.90;;;;;;5013180;28;20226;-76
2023/02/13 05:03:22;;;;;;;0.50;0.40;;;7.70;99.90;;;;;;5013751;28;20290;-76
2023/02/13 05:05:49;;;;;;;0.50;0.40;;;7.70;99.90;;;;;;5013333;28;20200;-77
2023/02/13 05:08:16;;;;;;;0.50;0.40;;;7.70;99.90;;;;;;5013650;28;20302;-78
2023/02/13 05:10:43;;;;;;;0.68;0.68;;;7.70;99.90;;;;;;5013489;28;20484;-77
2023/02/13 05:13:10;;;;;;;0.50;0.40;;;7.70;99.90;;;;;;5013400;28;20280;-76
2023/02/13 05:15:37;;;;;;;0.50;0.40;;;7.70;99.90;;;;;;5012578;28;20723;-77
2023/02/13 05:18:05;;;;;;;0.80;0.80;;;7.70;99.90;;;;;;5012896;28;20222;-76
2023/02/13 05:20:32;;;;;;;0.95;0.85;;;7.70;99.90;;;;;;5012796;28;20220;-76
2023/02/13 05:25:43;;;;;;;0.60;0.60;;;7.70;99.90;;;;;;5012603;28;20246;-76
2023/02/13 05:30:51;;;;;;;0.57;0.52;;;7.70;99.90;;;;;;4986856;28;20631;-76
2023/02/13 05:33:19;;;;;;;1.55;1.45;;;7.60;99.90;;;;;;4993496;28;20189;-76
2023/02/13 05:35:46;;;;;;;0.50;0.40;;;7.60;99.90;;;;;;4992625;28;20228;-77
2023/02/13 05:38:13;;;;;;;0.50;0.40;;;7.50;99.90;;;;;;4992715;28;20311;-77
2023/02/13 05:40:40;;;;;;;0.50;0.50;;;7.60;99.90;;;;;;4993233;28;20332;-77
2023/02/13 05:43:06;;;;;;;1.25;0.57;;;7.60;99.90;;;;;;4993359;28;20235;-77
2023/02/13 05:45:33;;;;;;;1.77;0.50;;;7.60;99.90;;;;;;4993551;28;20200;-78
2023/02/13 05:48:00;;;;;;;2.63;1.83;;;7.60;99.90;;;;;;4992477;28;20308;-77
2023/02/13 05:50:28;;;;;;;1.40;1.40;;;7.50;99.90;;;;;;4992483;28;20775;-77
2023/02/13 05:52:55;;;;;;;2.25;2.15;;;7.50;99.90;;;;;;4993062;28;20275;-77
2023/02/13 05:55:22;;;;;;;0.70;0.60;;;7.50;99.90;;;;;;4992624;28;20201;-77
2023/02/13 05:57:49;;;;;;;3.15;2.90;;;7.50;99.90;;;;;;4993445;28;20665;-76
2023/02/13 06:00:17;;;;;;;0.50;0.40;;;7.50;99.90;;;;;;4993333;28;20199;-77
2023/02/13 06:02:43;;;;;;;0.80;0.80;;;7.40;99.90;;;;;;4992837;28;20207;-77
2023/02/13 06:05:10;;;;;;;1.20;1.20;;;7.40;99.90;;;;;;4992206;28;20197;-77
2023/02/13 06:07:38;;;;;;;1.23;1.13;;;7.40;99.90;;;;;;4992978;28;20292;-77
2023/02/13 06:10:06;;;;;;;0.50;0.40;;;7.40;99.90;;;;;;4993449;28;20224;-77
2023/02/13 06:12:33;;;;;;;0.50;0.40;;;7.40;99.90;;;;;;4992173;28;20196;-78
2023/02/13 06:15:00;;;;;;;0.50;0.40;;;7.30;99.90;;;;;;4992020;28;20193;-78
2023/02/13 06:17:27;;;;;;;0.50;0.50;;;7.20;99.90;;;;;;4992672;28;20555;-77
2023/02/13 06:19:54;;;;;;;1.05;1.05;;;7.20;99.90;;;;;;4992706;28;20197;-77
2023/02/13 06:22:20;;;;;;;0.50;0.50;;;7.10;99.90;;;;;;4993111;28;20637;-77
2023/02/13 06:24:49;;;;;;;0.50;0.40;;;7.00;99.90;;;;;;4992734;28;20197;-77
2023/02/13 06:27:15;;;;;;;1.60;1.50;;;7.00;99.90;;;;;;4993444;28;20201;-77
2023/02/13 06:29:42;;;;;;;0.50;0.40;;;6.90;99.90;;;;;;4993537;28;20673;-78
2023/02/13 06:32:09;;;;;;;0.52;0.50;;;6.80;99.90;;;;;;4993595;28;20196;-77
2023/02/13 06:34:36;;;;;;;0.50;0.40;;;6.80;99.90;;;;;;4993329;28;20674;-78
2023/02/13 06:37:03;;;;;;;0.50;0.40;;;6.70;99.90;;;;;;4993577;28;20200;-77
2023/02/13 06:39:29;;;;;;;0.50;0.40;;;6.60;99.90;;;;;;4993758;28;20214;-76
2023/02/13 06:41:58;;;;;;;0.50;0.40;;;6.50;99.90;;;;;;4993001;28;20228;-78
2023/02/13 06:44:24;;;;;;;1.50;1.40;;;6.50;99.90;;;;;;4993992;28;20199;-77
2023/02/13 06:46:51;;;;;;;0.55;0.52;;;6.40;99.90;;;;;;4994056;28;20199;-76
2023/02/13 06:49:18;;;;;;;0.50;0.40;;;6.40;99.90;;;;;;4992733;28;20223;-77
2023/02/13 06:51:45;;;;;;;0.55;0.55;;;6.30;99.90;;;;;;4996290;28;20232;-78
2023/02/13 06:54:12;;;;;;;0.50;0.40;;;6.20;99.90;;;;;;4996789;28;20405;-78
2023/02/13 06:56:39;;;;;;;0.50;0.40;;;6.20;99.90;;;;;;4996885;28;20239;-77
2023/02/13 06:59:07;;;;;;;0.50;0.40;;;6.10;99.90;;;;;;4997197;28;20224;-76
2023/02/13 07:01:34;;;;;;;117.30;92.40;;;6.10;99.90;;;;;;4997844;28;20284;-77
2023/02/13 07:04:01;;;;;;;0.50;0.40;;;6.00;99.90;;;;;;4997284;28;20193;-79
2023/02/13 07:06:28;;;;;;;0.50;0.40;;;6.00;99.90;;;;;;4996036;28;20252;-77
2023/02/13 07:08:55;;;;;;;0.50;0.40;;;5.90;99.90;;;;;;4978378;28;20601;-77
2023/02/13 07:11:24;;;;;;;0.50;0.40;;;5.90;99.90;;;;;;4978775;28;20196;-77
2023/02/13 07:13:51;;;;;;;0.50;0.40;;;5.80;99.90;;;;;;4979193;28;20288;-76
2023/02/13 07:16:19;;;;;;;0.50;0.40;;;5.80;99.90;;;;;;4978053;28;20236;-77
2023/02/13 07:18:46;;;;;;;0.50;0.40;;;5.80;99.90;;;;;;4985419;28;20256;-77
2023/02/13 07:21:13;;;;;;;0.50;0.40;;;5.80;99.90;;;;;;4986724;28;20221;-76
2023/02/13 07:23:40;;;;;;;0.50;0.40;;;5.80;99.90;;;;;;4997344;28;20279;-77
2023/02/13 07:26:07;;;;;;;2.55;2.45;;;5.80;99.90;;;;;;4998529;28;20197;-78
2023/02/13 07:28:34;;;;;;;0.50;0.40;;;5.90;99.90;;;;;;4998190;28;20232;-76
2023/02/13 07:31:05;;;;;;;0.50;0.40;;;6.00;99.90;;;;;;4995281;28;20280;-77
2023/02/13 07:33:34;;;;;;;0.50;0.40;;;6.00;99.90;;;;;;4996455;28;20307;-76
2023/02/13 07:36:02;;;;;;;0.50;0.40;;;6.10;99.90;;;;;;4996827;28;20224;-77
2023/02/13 07:38:29;;;;;;;0.77;0.77;;;6.90;99.90;;;;;;4995158;28;20216;-76
2023/02/13 07:40:58;;;;;;;0.50;0.40;;;7.60;99.90;;;;;;4994623;28;20307;-77
2023/02/13 07:43:26;;;;;;;0.50;0.40;;;8.40;99.90;;;;;;4993608;28;20199;-77
2023/02/13 07:45:54;;;;;;;0.50;0.40;;;9.10;99.90;;;;;;4993819;28;20255;-77
2023/02/13 07:48:21;;;;;;;1.63;1.52;;;10.10;99.90;;;;;;4995951;28;20308;-77
2023/02/13 07:50:49;;;;;;;0.50;0.40;;;11.20;99.90;;;;;;4998969;28;20627;-76
2023/02/13 07:53:16;;;;;;;0.50;0.40;;;11.90;99.90;;;;;;4994821;28;20701;-76
2023/02/13 07:55:43;;;;;;;0.50;0.40;;;12.60;99.90;;;;;;4997468;28;21004;-78
2023/02/13 07:58:10;;;;;;;0.90;0.90;;;13.60;99.90;;;;;;5000680;28;20315;-77
2023/02/13 08:00:37;;;;;;;0.50;0.40;;;14.70;99.90;;;;;;4994738;28;21005;-77
2023/02/13 08:03:04;;;;;;;0.50;0.40;;;15.70;99.90;;;;;;4996255;28;20972;-77
2023/02/13 08:05:32;;;;;;;0.50;0.30;;;16.70;99.90;;;;;;4994739;28;20442;-77
2023/02/13 08:08:01;;;;;;;0.50;0.40;;;17.40;99.90;;;;;;4994604;28;21000;-77
2023/02/13 08:13:14;;;;;;;0.50;0.30;;;19.00;99.90;;;;;;4994593;28;20430;-78
2023/02/13 08:15:43;;;;;;;0.50;0.50;;;19.70;96.80;;;;;;4995815;28;20447;-78
2023/02/13 08:18:10;;;;;;;0.50;0.30;;;20.00;92.30;;;;;;4994757;28;20829;-77
2023/02/13 08:20:37;;;;;;;0.50;0.30;;;19.70;89.70;;;;;;4994991;28;21014;-78
2023/02/13 08:23:06;;;;;;;0.50;0.30;;;20.00;90.20;;;;;;4996445;28;20495;-77
2023/02/13 08:25:33;;;;;;;0.50;0.40;;;20.20;87.50;;;;;;4995642;28;20540;-77
2023/02/13 08:28:01;;;;;;;0.50;0.40;;;20.70;85.60;;;;;;4994936;28;20510;-78
2023/02/13 08:30:28;;;;;;;0.50;0.30;;;21.20;84.00;;;;;;4998829;28;20442;-77
2023/02/13 08:32:55;;;;;;;0.50;0.30;;;21.40;81.30;;;;;;4995578;28;20802;-78
2023/02/13 08:35:25;;;;;;;1.20;0.60;;;22.20;82.70;;;;;;4995462;28;20445;-77
2023/02/13 08:37:52;;;;;;;0.50;0.40;;;23.00;78.30;;;;;;4995898;28;20476;-78
2023/02/13 08:40:20;;;;;;;0.50;0.30;;;24.10;75.40;;;;;;4995418;28;20976;-78
2023/02/13 08:42:47;;;;;;;0.50;0.30;;;24.60;69.80;;;;;;4997135;28;20472;-76
2023/02/13 08:45:14;;;;;;;0.70;0.70;;;25.10;66.60;;;;;;4997074;28;20454;-75
2023/02/13 08:47:41;;;;;;;0.50;0.30;;;25.00;64.50;;;;;;4998225;28;20463;-77
2023/02/13 08:50:08;;;;;;;0.50;0.40;;;25.60;63.60;;;;;;4998358;28;20865;-77
2023/02/13 08:52:35;;;;;;;0.50;0.30;;;26.30;60.70;;;;;;4995357;28;20475;-78
2023/02/13 08:55:03;;;;;;;0.50;0.40;;;26.10;60.60;;;;;;4996779;28;20463;-78
2023/02/13 08:57:31;;;;;;;0.57;0.57;;;26.60;59.40;;;;;;4997483;28;20482;-78
2023/02/13 08:59:58;;;;;;;0.50;0.30;;;27.10;58.90;;;;;;4995390;28;20471;-77
2023/02/13 09:02:25;;;;;;;0.50;0.30;;;27.70;57.90;;;;;;4997398;28;21091;-76
2023/02/13 09:04:52;;;;;;;0.50;0.30;;;28.30;57.00;;;;;;4995894;28;20542;-77
2023/02/13 09:07:19;;;;;;;2.03;1.93;;;28.70;55.10;;;;;;4994210;28;20831;-75
2023/02/13 09:09:46;;;;;;;0.50;0.30;;;28.60;54.80;;;;;;4994601;28;20874;-76
2023/02/13 09:12:13;;;;;;;1.17;0.60;;;28.50;53.20;;;;;;4993855;28;20507;-76
2023/02/13 09:14:41;;;;;;;0.50;0.30;;;28.40;53.30;;;;;;4992615;28;20505;-76
2023/02/13 09:17:08;;;;;;;0.60;0.50;;;28.80;54.50;;;;;;4993457;28;20446;-77
2023/02/13 09:19:35;;;;;;;0.50;0.30;;;29.30;52.60;;;;;;4993322;28;20535;-76
2023/02/13 09:22:02;;;;;;;0.50;0.30;;;29.20;52.40;;;;;;4992659;28;21004;-78
2023/02/13 09:24:28;;;;;;;0.50;0.30;;;29.40;52.50;;;;;;4992517;28;21248;-75
2023/02/13 09:26:56;;;;;;;0.50;0.30;;;29.20;51.10;;;;;;4994187;28;20569;-76
2023/02/13 09:29:22;;;;;;;0.67;0.67;;;29.50;50.90;;;;;;4993796;28;20472;-76
2023/02/13 09:31:51;;;;;;;0.77;0.77;;;28.90;50.20;;;;;;4994079;28;20446;-76
2023/02/13 09:34:18;;;;;;;0.50;0.40;;;29.00;50.80;;;;;;4992960;28;20436;-76
2023/02/13 09:36:45;;;;;;;0.50;0.30;;;27.30;51.10;;;;;;4986645;28;20544;-77
2023/02/13 09:39:11;;;;;;;0.50;0.30;;;27.10;52.00;;;;;;4989807;28;20478;-77
2023/02/13 09:41:42;;;;;;;0.50;0.40;;;27.20;53.40;;;;;;4993230;28;20503;-78
2023/02/13 09:44:32;;;;;;;0.50;0.30;;;27.10;52.60;;;;;;4994899;28;20439;-77
2023/02/13 09:47:04;;;;;;;0.50;0.37;;;25.80;52.00;;;;;;4994172;28;20447;-77
2023/02/13 09:49:35;;;;;;;0.50;0.30;;;24.00;54.00;;;;;;4996348;28;20448;-78
2023/02/13 09:52:02;;;;;;;0.50;0.40;;;23.20;56.40;;;;;;4989433;28;20524;-78
2023/02/13 09:54:30;;;;;;;0.73;0.73;;;22.50;58.00;;;;;;4977774;28;20467;-78
2023/02/13 09:57:00;;;;;;;0.50;0.40;;;22.20;58.80;;;;;;4982474;28;20954;-76
2023/02/13 09:59:46;;;;;;;1.47;1.27;;;21.80;58.60;;;;;;4974046;28;20472;-76
2023/02/13 10:02:36;;;;;;;0.50;0.40;;;19.70;58.10;;;;;;4977274;28;20472;-77
2023/02/13 10:05:15;;;;;;;2.00;1.90;;;18.90;63.20;;;;;;5065806;22;20579;-79
2023/02/13 10:07:49;;;;;;;0.50;0.40;;;19.00;65.60;;;;;;5026888;28;20438;-78
2023/02/13 10:10:25;;;;;;;0.70;0.70;;;18.80;65.30;;;;;;5039108;28;20851;-78
2023/02/13 10:13:00;;;;;;;0.50;0.37;;;18.00;66.70;;;;;;5038132;28;20518;-80
2023/02/13 10:15:34;;;;;;;0.50;0.40;;;18.00;68.50;;;;;;5038661;28;20466;-77
2023/02/13 10:18:09;;;;;;;0.50;0.40;;;18.10;68.20;;;;;;5038726;28;20486;-80
2023/02/13 10:20:42;;;;;;;0.50;0.30;;;17.80;69.00;;;;;;5039026;28;20418;-80
2023/02/13 10:23:19;;;;;;;2.13;1.40;;;17.50;71.10;;;;;;5039387;28;20557;-81
2023/02/13 10:25:52;;;;;;;0.50;0.40;;;17.10;71.00;;;;;;5036784;28;20493;-82
2023/02/13 10:28:28;;;;;;;0.50;0.40;;;17.30;74.20;;;;;;5035362;28;20453;-77
2023/02/13 10:30:58;;;;;;;0.50;0.40;;;17.60;72.50;;;;;;5035883;28;20445;-79
2023/02/13 10:33:31;;;;;;;0.50;0.40;;;17.80;72.60;;;;;;5037127;28;20496;-80
2023/02/13 10:36:02;;;;;;;0.50;0.30;;;18.00;72.40;;;;;;5036726;28;20449;-79
2023/02/13 10:38:31;;;;;;;0.50;0.40;;;18.10;71.80;;;;;;5036574;28;20438;-78
2023/02/13 10:41:05;;;;;;;0.50;0.30;;;18.10;73.30;;;;;;5037399;28;20466;-78
2023/02/13 10:43:44;;;;;;;0.50;0.30;;;18.30;73.10;;;;;;5036392;28;20851;-80
2023/02/13 10:46:19;;;;;;;0.63;0.53;;;18.30;70.80;;;;;;5036146;28;20426;-79
2023/02/13 10:49:11;;;;;;;0.50;0.40;;;18.20;71.50;;;;;;5036355;28;20438;-80
2023/02/13 10:51:44;;;;;;;0.50;0.30;;;18.10;70.70;;;;;;5035464;28;20473;-79
2023/02/13 10:54:33;;;;;;;0.50;0.30;;;18.40;72.20;;;;;;5036032;28;20545;-78
2023/02/13 10:57:10;;;;;;;0.50;0.30;;;18.90;72.00;;;;;;5035573;28;20438;-80
2023/02/13 10:59:50;;;;;;;3.03;1.33;;;19.20;68.40;;;;;;5040220;28;20808;-78
2023/02/13 11:02:24;;;;;;;0.50;0.40;;;19.30;69.90;;;;;;5048546;28;20462;-78
2023/02/13 11:05:00;;;;;;;0.50;0.30;;;20.00;68.10;;;;;;5045889;28;20552;-79
2023/02/13 11:07:28;;;;;;;0.50;0.30;;;20.70;67.20;;;;;;5040526;28;20959;-78
2023/02/13 11:09:59;;;;;;;0.50;0.30;;;21.30;64.90;;;;;;5036711;28;20465;-79
2023/02/13 11:12:28;;;;;;;0.60;0.60;;;21.80;65.60;;;;;;5037665;28;20915;-78
2023/02/13 11:14:57;;;;;;;0.50;0.30;;;22.50;63.90;;;;;;5037025;28;20533;-80
2023/02/13 11:17:26;;;;;;;0.50;0.50;;;23.40;63.90;;;;;;5037579;28;20509;-80
2023/02/13 11:19:57;;;;;;;0.50;0.30;;;23.70;59.50;;;;;;5037146;28;20532;-79
2023/02/13 11:22:32;;;;;;;2.30;1.80;;;24.00;60.10;;;;;;5036101;28;20476;-78
2023/02/13 11:25:01;;;;;;;0.50;0.30;;;24.10;57.10;;;;;;5035755;28;20456;-80
2023/02/13 11:27:32;;;;;;;0.50;0.30;;;23.90;58.50;;;;;;5036576;28;20492;-80
2023/02/13 11:30:01;;;;;;;0.50;0.30;;;24.40;57.90;;;;;;5037348;28;20446;-79
2023/02/13 11:32:30;;;;;;;0.50;0.40;;;24.40;58.10;;;;;;5035939;28;20454;-80
2023/02/13 11:35:05;;;;;;;0.50;0.30;;;23.60;57.10;;;;;;5037009;28;20492;-79
2023/02/13 11:37:32;;;;;;;0.50;0.30;;;22.90;57.80;;;;;;5037352;28;20467;-77
2023/02/13 11:40:00;;;;;;;1.17;0.83;;;22.10;58.90;;;;;;5039420;28;20441;-79
2023/02/13 11:42:30;;;;;;;0.50;0.40;;;21.90;59.60;;;;;;5039607;28;20484;-79
2023/02/13 11:45:00;;;;;;;0.60;0.40;;;21.90;60.40;;;;;;5039630;28;20458;-78
2023/02/13 11:47:34;;;;;;;0.50;0.30;;;21.80;61.00;;;;;;5040831;28;20422;-79
2023/02/13 11:50:02;;;;;;;0.50;0.30;;;21.70;61.10;;;;;;5039275;28;20524;-81
2023/02/13 11:52:32;;;;;;;0.50;0.30;;;21.50;61.60;;;;;;5040995;28;20438;-80
2023/02/13 11:55:01;;;;;;;0.50;0.40;;;21.60;62.20;;;;;;5039048;28;20462;-78
2023/02/13 11:57:31;;;;;;;0.50;0.30;;;21.60;61.40;;;;;;5040133;28;20442;-80
2023/02/13 11:59:59;;;;;;;0.50;0.40;;;22.00;62.10;;;;;;5037780;28;20815;-80
2023/02/13 12:02:28;;;;;;;0.50;0.30;;;22.50;60.70;;;;;;5038306;28;20480;-80
2023/02/13 12:05:11;;;;;;;0.50;0.30;;;22.50;59.90;;;;;;5039245;28;20549;-80
2023/02/13 12:07:40;;;;;;;0.50;0.30;;;23.00;60.10;;;;;;5038301;28;20529;-80
2023/02/13 12:10:17;;;;;;;0.77;0.70;;;23.30;60.20;;;;;;5037359;28;20442;-81
2023/02/13 12:12:52;;;;;;;0.50;0.30;;;23.20;58.30;;;;;;5037804;28;20448;-80
2023/02/13 12:15:22;;;;;;;0.50;0.30;;;22.70;58.40;;;;;;5038112;28;20472;-80
2023/02/13 12:17:59;;;;;;;0.50;0.37;;;22.30;59.30;;;;;;5040627;28;20442;-81
2023/02/13 12:20:28;;;;;;;0.50;0.30;;;22.00;59.20;;;;;;5041912;28;20442;-79
2023/02/13 12:23:05;;;;;;;0.50;0.30;;;21.30;59.70;;;;;;5040693;28;21025;-80
2023/02/13 12:25:54;;;;;;;0.50;0.30;;;21.00;60.90;;;;;;5041049;28;20986;-81
2023/02/13 12:28:28;;;;;;;0.50;0.30;;;20.90;62.10;;;;;;5040874;28;20438;-80
2023/02/13 12:31:21;;;;;;;0.50;0.40;;;20.70;61.70;;;;;;5039249;28;20425;-79
2023/02/13 12:34:43;;;;;;;0.50;0.33;;;20.20;61.80;;;;;;5039000;28;20480;-79
2023/02/13 12:37:23;;;;;;;0.50;0.30;;;20.00;65.70;;;;;;4979371;28;20427;-80
2023/02/13 12:40:14;;;;;;;0.50;0.30;;;19.90;65.20;;;;;;4979960;28;20795;-80
2023/02/13 12:42:47;;;;;;;0.50;0.30;;;19.70;65.10;;;;;;4964503;28;20564;-79
2023/02/13 12:45:30;;;;;;;0.50;0.30;;;19.50;65.80;;;;;;4980038;28;20484;-79
2023/02/13 12:48:16;;;;;;;1.53;0.70;;;18.90;64.80;;;;;;4979784;28;21036;-80
2023/02/13 12:50:56;;;;;;;0.50;0.30;;;18.50;66.30;;;;;;4978502;28;20900;-80
2023/02/13 12:53:52;;;;;;;0.50;0.30;;;18.40;67.50;;;;;;4979633;28;20520;-79
2023/02/13 12:56:35;;;;;;;0.50;0.40;;;18.40;69.10;;;;;;4979383;28;20524;-80
2023/02/13 12:59:08;;;;;;;0.50;0.40;;;18.60;69.70;;;;;;4980817;28;20413;-80
2023/02/13 13:02:13;;;;;;;0.50;0.30;;;18.40;67.60;;;;;;4978418;28;20554;-76
2023/02/13 13:04:53;;;;;;;0.50;0.40;;;18.10;67.90;;;;;;4955087;28;20472;-81
2023/02/13 13:07:48;;;;;;;0.50;0.30;;;18.10;70.40;;;;;;4989825;28;20508;-80
2023/02/13 13:10:34;;;;;;;1.27;0.80;;;18.50;69.20;;;;;;5040582;28;20930;-80
2023/02/13 13:13:12;;;;;;;0.50;0.30;;;18.80;67.60;;;;;;5039058;28;20465;-79
2023/02/13 13:15:46;;;;;;;5.03;0.73;;;18.80;67.20;;;;;;5039560;28;20513;-80
2023/02/13 13:18:23;;;;;;;0.73;0.73;;;18.70;67.10;;;;;;5040167;28;20497;-80
2023/02/13 13:21:01;;;;;;;1.33;1.07;;;18.70;67.10;;;;;;5041362;28;20448;-79
2023/02/13 13:23:34;;;;;;;0.50;0.40;;;18.60;67.40;;;;;;5039829;28;20496;-80
2023/02/13 13:26:15;;;;;;;0.50;0.30;;;18.90;68.30;;;;;;5040220;28;20473;-80
2023/02/13 13:28:47;;;;;;;0.50;0.30;;;19.20;67.50;;;;;;5040293;28;20434;-80
2023/02/13 13:31:14;;;;;;;0.50;0.30;;;19.60;67.60;;;;;;5040830;28;20434;-81
2023/02/13 13:33:43;;;;;;;1.20;1.20;;;19.90;65.90;;;;;;5039959;28;20477;-79
2023/02/13 13:36:19;;;;;;;0.50;0.30;;;20.30;64.90;;;;;;5039914;28;20437;-80
2023/02/13 13:38:55;;;;;;;0.50;0.30;;;20.60;64.00;;;;;;5040348;28;20428;-79
2023/02/13 13:41:35;;;;;;;1.60;1.50;;;21.10;62.80;;;;;;5038040;28;20477;-79
2023/02/13 13:44:19;;;;;;;0.60;0.50;;;21.50;61.10;;;;;;5047905;28;20469;-80
2023/02/13 13:46:55;;;;;;;0.50;0.30;;;21.40;60.50;;;;;;5048140;28;20452;-79
2023/02/13 13:49:34;;;;;;;0.50;0.30;;;22.00;60.60;;;;;;5046460;28;20537;-79
2023/02/13 13:52:23;;;;;;;1.63;0.97;;;22.50;60.00;;;;;;5038192;28;20469;-80
2023/02/13 13:54:52;;;;;;;0.50;0.40;;;22.40;58.30;;;;;;5039006;28;20458;-80
2023/02/13 13:57:19;;;;;;;0.50;0.30;;;21.90;59.30;;;;;;5038206;28;20441;-78
2023/02/13 14:00:18;;;;;;;0.70;0.60;;;22.40;59.50;;;;;;5037446;28;20577;-79